Terminal Aerodrome Forecast
Issued by NWS Memphis, TN

Home | Current Version | Previous Version | Text Only | Print | Product List | Glossary On
Versions: 1 2 3 4 5 6 7 8 9 10 11 12 13 14 15 16 17 18
877
FTUS44 KMEG 250530
TAFJBR
TAF
KJBR 250530Z 2506/2606 28005KT P6SM FEW070
     FM251500 25010KT P6SM FEW050 FEW250
     FM260100 21006KT P6SM SCT250=

USA.gov is the U.S. government's official web portal to all federal, state and local government web resources and services.